EST,Max TemperatureF,Mean TemperatureF,Min TemperatureF,Max Dew PointF,MeanDew PointF,Min DewpointF,Max Humidity, Mean Humidity, Min Humidity, Max Sea Level PressureIn, Mean Sea Level PressureIn, Min Sea Level PressureIn, Max VisibilityMiles, Mean VisibilityMiles, Min VisibilityMiles, Max Wind SpeedMPH, Mean Wind SpeedMPH, Max Gust SpeedMPH,PrecipitationIn, CloudCover, Events, WindDirDegrees
2013-2-1,30,26,21,9,4,1,46,39,29,30.10,29.82,29.60,10,10,10,23,13,34,0.00,2,,280
2013-2-2,28,22,16,9,2,-1,52,41,33,30.27,30.15,30.07,10,9,2,12,7,16,0.00,3,,227
2013-2-3,27,23,19,19,17,14,89,75,61,30.08,29.91,29.76,10,7,2,8,3,,0.00,7,Snow,11
2013-2-4,28,24,19,18,5,-1,81,46,29,29.94,29.82,29.75,10,10,10,22,8,38,0.00,2,,272
2013-2-5,28,21,14,13,6,1,71,51,37,30.06,30.00,29.96,10,10,10,9,3,,0.00,3,Snow,128
2013-2-6,36,28,21,22,14,0,89,61,33,30.33,30.06,29.92,10,8,2,15,3,25,0.00,4,Snow,285
2013-2-7,27,21,15,-5,-6,-7,41,32,24,30.58,30.51,30.35,10,10,10,12,7,16,0.00,3,,2
2013-2-8,23,20,17,16,12,-3,86,75,32,30.53,30.19,29.75,10,4,0,23,11,36,0.09,8,Fog-Snow,31
2013-2-9,19,17,15,16,10,-2,88,73,47,30.25,29.86,29.65,10,3,0,30,22,44,0.39,5,Fog-Snow,337
2013-2-10,35,22,10,7,0,-5,71,43,23,30.43,30.37,30.27,10,10,2,14,8,20,0.00,0,,338
2013-2-11,32,20,9,30,21,2,96,87,68,30.38,29.96,29.61,10,2,0,7,2,,0.28,7,Fog-Rain-Snow,337
2013-2-12,42,36,30,29,27,25,92,66,53,29.88,29.73,29.63,10,10,5,15,7,24,0.00,6,,249
2013-2-13,39,34,28,25,21,19,78,59,43,29.89,29.83,29.77,10,10,10,13,5,16,0.00,3,,310
2013-2-14,42,34,26,22,20,17,75,60,38,30.01,29.91,29.77,10,10,9,9,3,,0.00,3,,347
2013-2-15,51,36,21,28,24,17,89,65,38,30.01,29.97,29.91,10,9,6,13,3,20,0.00,2,,221
2013-2-16,39,34,28,30,25,12,93,74,48,29.99,29.92,29.78,10,6,1,16,5,22,0.04,8,Snow,340
2013-2-17,27,22,16,13,5,-2,81,53,36,29.74,29.57,29.41,10,7,1,26,16,44,0.00,8,Snow,318
2013-2-18,30,21,12,-1,-4,-7,53,34,22,30.17,29.98,29.73,10,10,10,26,15,38,0.00,0,,286
2013-2-19,44,32,19,39,21,0,100,63,34,30.19,29.91,29.56,10,8,0,12,4,,0.11,5,Fog-Rain,145
2013-2-20,37,32,26,36,19,10,100,61,40,29.78,29.64,29.52,10,9,0,16,8,33,0.00,5,Fog-Rain,267
2013-2-21,30,26,23,14,10,5,65,52,43,30.25,29.94,29.75,10,10,10,22,12,34,0.00,2,,310
2013-2-22,39,30,21,22,17,14,78,58,36,30.44,30.37,30.24,10,10,10,12,7,,0.00,1,,9
2013-2-23,36,33,30,31,27,23,92,77,65,30.35,30.17,29.94,10,8,2,12,3,,0.03,8,Rain-Snow,117
2013-2-24,34,32,30,32,30,28,96,90,87,29.96,29.84,29.72,7,2,1,12,6,,0.63,8,Snow,360
2013-2-25,37,34,30,33,30,28,93,87,79,30.27,30.12,29.92,10,7,2,5,2,,0.00,7,Snow,169
2013-2-26,41,36,30,32,28,25,92,77,57,30.38,30.32,30.22,10,7,2,10,2,,0.00,6,,93
2013-2-27,48,40,33,45,33,27,96,89,72,30.20,29.89,29.61,10,3,0,17,10,28,0.57,8,Fog-Rain-Snow,53
2013-2-28,44,38,33,34,31,30,92,80,65,29.66,29.60,29.56,10,10,2,10,5,,0.00,7,,325